createdAt,value
2023-04-30T00:02:23.757Z,3.22
2023-04-30T00:05:10.702Z,3.30
2023-04-30T00:07:56.646Z,3.28
2023-04-30T00:10:42.309Z,2.83
2023-04-30T00:13:27.823Z,2.88
2023-04-30T00:16:13.825Z,2.60
2023-04-30T00:18:59.627Z,3.13
2023-04-30T00:21:45.086Z,3.13
2023-04-30T00:24:31.154Z,2.60
2023-04-30T00:27:17.084Z,2.60
2023-04-30T00:30:03.523Z,2.58
2023-04-30T00:32:49.048Z,2.80
2023-04-30T00:35:35.372Z,2.63
2023-04-30T00:38:21.193Z,2.38
2023-04-30T00:41:07.422Z,2.60
2023-04-30T00:43:53.385Z,3.47
2023-04-30T00:46:39.388Z,2.67
2023-04-30T00:49:26.148Z,2.63
2023-04-30T00:52:12.362Z,2.67
2023-04-30T00:54:58.101Z,3.28
2023-04-30T00:57:43.902Z,3.17
2023-04-30T01:00:30.292Z,2.65
2023-04-30T01:03:16.503Z,2.80
2023-04-30T01:06:03.362Z,2.97
2023-04-30T01:08:49.726Z,3.22
2023-04-30T01:12:15.396Z,2.35
2023-04-30T01:15:27.459Z,2.65
2023-04-30T01:18:29.235Z,2.60
2023-04-30T01:21:20.077Z,2.63
2023-04-30T01:24:27.598Z,2.60
2023-04-30T01:27:56.665Z,2.65
2023-04-30T01:30:44.852Z,2.97
2023-04-30T01:33:30.620Z,3.25
2023-04-30T01:36:41.324Z,3.10
2023-04-30T01:40:11.582Z,2.55
2023-04-30T01:43:20.781Z,3.20
2023-04-30T01:46:30.068Z,2.80
2023-04-30T01:49:37.451Z,3.35
2023-04-30T01:52:41.829Z,3.10
2023-04-30T01:55:44.357Z,3.17
2023-04-30T01:58:32.105Z,3.08
2023-04-30T02:01:32.573Z,3.28
2023-04-30T02:04:18.514Z,3.33
2023-04-30T02:07:04.465Z,3.35
2023-04-30T02:09:50.341Z,2.85
2023-04-30T02:12:36.211Z,3.03
2023-04-30T02:15:22.167Z,3.30
2023-04-30T02:18:07.922Z,3.25
2023-04-30T02:20:53.836Z,3.35
2023-04-30T02:23:39.525Z,3.22
2023-04-30T02:26:26.679Z,3.33
2023-04-30T02:29:12.689Z,3.42
2023-04-30T02:31:59.612Z,3.72
2023-04-30T02:34:45.424Z,3.95
2023-04-30T02:37:31.077Z,3.50
2023-04-30T02:40:16.666Z,3.90
2023-04-30T02:43:02.151Z,4.05
2023-04-30T02:45:48.477Z,3.45
2023-04-30T02:48:34.552Z,4.05
2023-04-30T02:51:20.221Z,4.07
2023-04-30T02:54:06.280Z,4.32
2023-04-30T02:56:51.827Z,3.60
2023-04-30T02:59:38.773Z,4.30
2023-04-30T03:02:24.704Z,3.97
2023-04-30T03:05:11.409Z,4.15
2023-04-30T03:07:57.250Z,4.72
2023-04-30T03:10:43.422Z,4.57
2023-04-30T03:13:29.598Z,3.75
2023-04-30T03:16:15.800Z,4.82
2023-04-30T03:19:01.613Z,4.18
2023-04-30T03:21:48.377Z,4.57
2023-04-30T03:24:33.998Z,5.70
2023-04-30T03:27:19.314Z,5.00
2023-04-30T03:30:06.551Z,5.18
2023-04-30T03:32:52.877Z,5.18
2023-04-30T03:35:38.582Z,4.97
2023-04-30T03:38:24.693Z,5.25
2023-04-30T03:41:10.976Z,5.15
2023-04-30T03:43:56.800Z,4.82
2023-04-30T03:46:44.467Z,4.65
2023-04-30T03:49:30.495Z,4.95
2023-04-30T03:52:16.842Z,4.55
2023-04-30T03:55:05.975Z,5.15
2023-04-30T03:57:51.659Z,5.07
2023-04-30T04:00:37.755Z,5.20
2023-04-30T04:03:23.749Z,4.55
2023-04-30T04:06:09.572Z,5.03
2023-04-30T04:08:55.621Z,5.10
2023-04-30T04:11:42.061Z,5.40
2023-04-30T04:14:28.324Z,5.28
2023-04-30T04:17:14.595Z,5.35
2023-04-30T04:20:02.870Z,5.43
2023-04-30T04:22:48.514Z,4.82
2023-04-30T04:25:34.268Z,6.30
2023-04-30T04:28:21.268Z,5.72
2023-04-30T04:31:07.863Z,5.55
2023-04-30T04:33:58.277Z,5.32
2023-04-30T04:36:44.445Z,5.60
2023-04-30T04:39:30.863Z,5.85
2023-04-30T04:42:18.141Z,6.10
2023-04-30T04:45:08.303Z,5.45
2023-04-30T04:47:53.956Z,6.13
2023-04-30T04:50:41.165Z,5.15
2023-04-30T04:53:27.094Z,5.70
2023-04-30T04:56:13.954Z,6.20
2023-04-30T04:59:00.005Z,5.25
2023-04-30T05:01:46.086Z,4.93
2023-04-30T05:04:32.069Z,5.55
2023-04-30T05:07:18.496Z,6.20
2023-04-30T05:10:04.502Z,6.10
2023-04-30T05:12:50.952Z,6.07
2023-04-30T05:15:37.082Z,6.05
2023-04-30T05:18:22.798Z,5.95
2023-04-30T05:21:09.945Z,6.18
2023-04-30T05:23:56.162Z,5.95
2023-04-30T05:26:42.667Z,5.68
2023-04-30T05:29:28.788Z,6.47
2023-04-30T05:32:15.957Z,6.05
2023-04-30T05:35:02.729Z,6.18
2023-04-30T05:37:48.625Z,5.43
2023-04-30T05:40:34.249Z,6.35
2023-04-30T05:43:19.923Z,5.75
2023-04-30T05:46:05.466Z,6.00
2023-04-30T05:48:51.390Z,5.80
2023-04-30T05:51:37.169Z,6.72
2023-04-30T05:54:22.827Z,6.32
2023-04-30T05:57:09.363Z,5.88
2023-04-30T05:59:55.606Z,6.45
2023-04-30T06:02:42.144Z,5.85
2023-04-30T06:05:28.205Z,5.90
2023-04-30T06:08:14.360Z,5.57
2023-04-30T06:11:00.677Z,5.25
2023-04-30T06:13:48.893Z,5.60
2023-04-30T06:16:34.814Z,5.87
2023-04-30T06:19:21.183Z,5.78
2023-04-30T06:22:06.968Z,5.50
2023-04-30T06:24:52.674Z,6.03
2023-04-30T06:27:39.119Z,6.18
2023-04-30T06:30:24.710Z,6.55
2023-04-30T06:33:10.631Z,6.22
2023-04-30T06:35:57.238Z,6.53
2023-04-30T06:38:43.956Z,6.07
2023-04-30T06:41:29.980Z,5.72
2023-04-30T06:44:16.636Z,6.15
2023-04-30T06:47:02.618Z,6.55
2023-04-30T06:49:48.549Z,6.55
2023-04-30T06:52:34.473Z,5.35
2023-04-30T06:55:20.814Z,5.53
2023-04-30T06:58:07.041Z,6.57
2023-04-30T07:00:52.919Z,5.43
2023-04-30T07:03:39.294Z,5.30
2023-04-30T07:06:25.454Z,5.90
2023-04-30T07:09:11.448Z,6.20
2023-04-30T07:11:58.811Z,5.68
2023-04-30T07:14:45.052Z,5.88
2023-04-30T07:17:31.976Z,6.07
2023-04-30T07:20:17.901Z,5.53
2023-04-30T07:23:03.848Z,5.78
2023-04-30T07:25:49.714Z,5.60
2023-04-30T07:28:36.569Z,5.90
2023-04-30T07:31:22.530Z,5.05
2023-04-30T07:34:08.975Z,5.10
2023-04-30T07:36:54.670Z,6.03
2023-04-30T07:39:40.598Z,5.00
2023-04-30T07:42:26.331Z,5.43
2023-04-30T07:45:13.306Z,4.95
2023-04-30T07:47:59.175Z,4.93
2023-04-30T07:50:50.547Z,5.35
2023-04-30T07:53:37.688Z,5.05
2023-04-30T07:56:23.942Z,5.18
2023-04-30T07:59:09.763Z,4.65
2023-04-30T08:01:55.698Z,5.13
2023-04-30T08:04:41.596Z,4.85
2023-04-30T08:07:27.969Z,5.10
2023-04-30T08:10:14.137Z,5.28
2023-04-30T08:12:59.945Z,4.93
2023-04-30T08:15:46.481Z,4.85
2023-04-30T08:18:32.779Z,4.85
2023-04-30T08:21:18.802Z,5.20
2023-04-30T08:24:05.326Z,4.70
2023-04-30T08:26:52.918Z,5.15
2023-04-30T08:29:39.359Z,5.15
2023-04-30T08:32:24.964Z,5.57
2023-04-30T08:35:11.905Z,5.13
2023-04-30T08:37:57.783Z,5.03
2023-04-30T08:40:53.521Z,4.95
2023-04-30T08:43:41.169Z,4.28
2023-04-30T08:46:31.485Z,4.47
2023-04-30T08:49:18.011Z,5.38
2023-04-30T08:52:03.676Z,4.28
2023-04-30T08:54:54.683Z,4.47
2023-04-30T08:57:40.371Z,4.03
2023-04-30T09:00:27.867Z,4.22
2023-04-30T09:03:14.042Z,4.25
2023-04-30T09:06:00.010Z,4.32
2023-04-30T09:08:50.660Z,3.63
2023-04-30T09:11:37.389Z,4.15
2023-04-30T09:14:27.289Z,4.20
2023-04-30T09:17:23.363Z,3.53
2023-04-30T09:20:14.152Z,3.42
2023-04-30T09:23:09.872Z,3.40
2023-04-30T09:25:57.388Z,3.58
2023-04-30T09:28:58.978Z,3.70
2023-04-30T09:31:47.708Z,3.88
2023-04-30T09:37:22.338Z,3.25
2023-04-30T09:40:09.500Z,3.20
2023-04-30T09:43:00.355Z,3.38
2023-04-30T09:45:50.014Z,3.63
2023-04-30T09:48:42.573Z,3.72
2023-04-30T09:51:28.945Z,3.08
2023-04-30T09:54:15.704Z,3.33
2023-04-30T09:57:05.218Z,3.40
2023-04-30T09:59:54.021Z,3.00
2023-04-30T10:02:40.604Z,2.92
2023-04-30T10:05:27.431Z,3.40
2023-04-30T10:08:43.660Z,2.95
2023-04-30T10:11:35.583Z,3.17
2023-04-30T10:14:22.236Z,2.80
2023-04-30T10:17:14.690Z,2.95
2023-04-30T10:20:05.920Z,2.90
2023-04-30T10:22:52.621Z,2.50
2023-04-30T10:25:41.024Z,2.92
2023-04-30T10:28:27.640Z,2.60
2023-04-30T10:31:14.323Z,2.80
2023-04-30T10:34:15.771Z,3.05
2023-04-30T10:37:14.569Z,3.10
2023-04-30T10:40:02.267Z,3.47
2023-04-30T10:42:49.830Z,3.13
2023-04-30T10:45:43.847Z,3.13
2023-04-30T10:48:31.233Z,3.05
2023-04-30T10:51:18.104Z,3.10
2023-04-30T10:54:04.365Z,3.00
2023-04-30T10:56:52.966Z,3.00
2023-04-30T10:59:45.258Z,2.78
2023-04-30T11:02:44.224Z,2.80
2023-04-30T11:05:39.978Z,2.83
2023-04-30T11:08:40.396Z,3.30
2023-04-30T11:11:25.964Z,3.03
2023-04-30T11:14:12.618Z,3.17
2023-04-30T11:17:03.877Z,3.42
2023-04-30T11:19:52.565Z,3.15
2023-04-30T11:22:39.845Z,2.65
2023-04-30T11:25:25.647Z,2.90
2023-04-30T11:28:36.476Z,2.90
2023-04-30T11:31:23.050Z,2.95
2023-04-30T11:34:10.490Z,2.90
2023-04-30T11:37:01.111Z,3.03
2023-04-30T11:39:48.657Z,2.67
2023-04-30T11:42:35.595Z,2.67
2023-04-30T11:45:23.366Z,2.95
2023-04-30T11:48:14.724Z,2.42
2023-04-30T11:51:05.043Z,2.63
2023-04-30T11:53:52.860Z,2.85
2023-04-30T11:56:40.897Z,2.10
2023-04-30T12:02:17.700Z,2.33
2023-04-30T12:05:04.500Z,2.50
2023-04-30T12:07:56.027Z,2.47
2023-04-30T12:10:41.781Z,2.35
2023-04-30T12:13:27.906Z,2.00
2023-04-30T12:16:14.799Z,2.20
2023-04-30T12:19:05.261Z,2.22
2023-04-30T12:21:51.650Z,2.33
2023-04-30T12:24:37.406Z,2.63
2023-04-30T12:27:23.458Z,2.35
2023-04-30T12:30:10.416Z,2.40
2023-04-30T12:33:18.106Z,2.35
2023-04-30T12:36:04.651Z,2.70
2023-04-30T12:39:41.574Z,3.45
2023-04-30T12:42:35.893Z,2.70
2023-04-30T12:45:53.317Z,2.42
2023-04-30T12:48:45.861Z,2.65
2023-04-30T12:51:41.740Z,2.50
2023-04-30T12:54:29.099Z,2.65
2023-04-30T12:57:15.330Z,2.63
2023-04-30T13:00:01.313Z,2.67
2023-04-30T13:02:47.190Z,2.65
2023-04-30T13:05:33.837Z,2.35
2023-04-30T13:08:20.837Z,2.63
2023-04-30T13:11:06.845Z,2.75
2023-04-30T13:13:55.242Z,2.67
2023-04-30T13:16:41.298Z,2.45
2023-04-30T13:19:27.222Z,2.67
2023-04-30T13:22:13.442Z,2.63
2023-04-30T13:24:59.270Z,2.70
2023-04-30T13:27:45.068Z,2.47
2023-04-30T13:30:30.908Z,2.67
2023-04-30T13:33:16.563Z,2.70
2023-04-30T13:36:03.564Z,2.13
2023-04-30T13:38:49.479Z,2.55
2023-04-30T13:41:35.977Z,2.50
2023-04-30T13:44:21.769Z,2.25
2023-04-30T13:47:07.862Z,2.92
2023-04-30T13:49:54.556Z,2.20
2023-04-30T13:52:40.312Z,2.38
2023-04-30T13:55:25.802Z,2.53
2023-04-30T13:58:12.026Z,2.67
2023-04-30T14:00:58.164Z,2.55
2023-04-30T14:03:43.898Z,2.15
2023-04-30T14:06:31.271Z,2.40
2023-04-30T14:09:18.147Z,2.42
2023-04-30T14:12:05.127Z,2.63
2023-04-30T14:14:51.139Z,2.63
2023-04-30T14:17:37.024Z,2.45
2023-04-30T14:20:22.713Z,2.38
2023-04-30T14:23:09.920Z,2.10
2023-04-30T14:25:56.532Z,2.53
2023-04-30T14:28:42.663Z,2.40
2023-04-30T14:31:28.660Z,2.38
2023-04-30T14:34:15.410Z,2.50
2023-04-30T14:37:03.940Z,2.53
2023-04-30T14:39:50.130Z,2.00
2023-04-30T14:42:36.395Z,2.28
2023-04-30T14:45:21.940Z,2.45
2023-04-30T14:48:16.428Z,2.00
2023-04-30T14:51:02.637Z,2.17
2023-04-30T14:53:48.156Z,2.10
2023-04-30T14:56:35.764Z,2.22
2023-04-30T14:59:21.616Z,2.05
2023-04-30T15:02:34.561Z,2.17
2023-04-30T15:05:21.454Z,2.20
2023-04-30T15:08:28.434Z,2.10
2023-04-30T15:16:40.315Z,1.77
2023-04-30T15:19:28.501Z,2.10
2023-04-30T15:22:14.641Z,1.83
2023-04-30T15:28:28.815Z,1.92
2023-04-30T15:31:14.848Z,2.10
2023-04-30T15:34:00.660Z,2.10
2023-04-30T15:36:47.812Z,2.10
2023-04-30T15:39:35.529Z,2.08
2023-04-30T15:42:22.341Z,2.30
2023-04-30T15:45:11.911Z,2.10
2023-04-30T15:48:00.625Z,1.90
2023-04-30T15:50:46.477Z,2.00
2023-04-30T15:53:35.760Z,2.10
2023-04-30T15:56:26.837Z,2.22
2023-04-30T15:59:17.685Z,1.83
2023-04-30T16:02:08.985Z,3.00
2023-04-30T16:04:55.860Z,2.00
2023-04-30T16:07:44.815Z,2.25
2023-04-30T16:10:30.696Z,2.15
2023-04-30T16:13:18.081Z,2.03
2023-04-30T16:16:08.582Z,2.17
2023-04-30T16:18:55.240Z,1.48
2023-04-30T16:21:42.059Z,1.52
2023-04-30T16:24:28.515Z,2.00
2023-04-30T16:27:14.530Z,2.00
2023-04-30T16:30:01.860Z,1.98
2023-04-30T16:32:48.587Z,1.60
2023-04-30T16:35:36.639Z,1.88
2023-04-30T16:38:24.248Z,1.98
2023-04-30T16:41:21.696Z,1.95
2023-04-30T16:44:10.011Z,1.80
2023-04-30T16:47:00.035Z,1.92
2023-04-30T16:49:46.102Z,1.80
2023-04-30T16:52:36.418Z,2.10
2023-04-30T16:55:26.083Z,2.28
2023-04-30T16:58:12.524Z,1.80
2023-04-30T17:00:58.623Z,1.85
2023-04-30T17:03:45.118Z,2.40
2023-04-30T17:06:31.601Z,2.10
2023-04-30T17:09:20.067Z,2.83
2023-04-30T17:12:09.827Z,2.33
2023-04-30T17:14:56.514Z,2.50
2023-04-30T17:17:43.259Z,2.33
2023-04-30T17:20:29.213Z,2.42
2023-04-30T17:23:14.950Z,3.90
2023-04-30T17:26:04.792Z,2.72
2023-04-30T17:28:50.975Z,2.40
2023-04-30T17:31:43.188Z,1.98
2023-04-30T17:34:31.947Z,2.10
2023-04-30T17:37:23.990Z,1.98
2023-04-30T17:40:10.462Z,1.83
2023-04-30T17:42:57.882Z,2.08
2023-04-30T17:45:44.377Z,2.40
2023-04-30T17:48:31.229Z,2.47
2023-04-30T17:51:25.132Z,2.00
2023-04-30T17:54:14.206Z,2.35
2023-04-30T17:57:03.045Z,2.03
2023-04-30T17:59:56.858Z,2.00
2023-04-30T18:02:48.437Z,1.88
2023-04-30T18:05:38.886Z,1.95
2023-04-30T18:08:33.135Z,2.08
2023-04-30T18:11:19.146Z,2.17
2023-04-30T18:14:07.204Z,2.20
2023-04-30T18:16:53.428Z,1.92
2023-04-30T18:19:44.348Z,2.03
2023-04-30T18:22:31.205Z,1.90
2023-04-30T18:25:22.004Z,1.80
2023-04-30T18:28:09.032Z,1.80
2023-04-30T18:30:58.394Z,2.50
2023-04-30T18:36:37.154Z,2.35
2023-04-30T18:39:23.585Z,2.28
2023-04-30T18:42:10.298Z,1.85
2023-04-30T18:44:57.245Z,1.95
2023-04-30T18:47:46.186Z,1.80
2023-04-30T18:50:32.501Z,1.73
2023-04-30T18:53:18.900Z,16.10
2023-04-30T18:56:06.025Z,6.70
2023-04-30T18:58:52.560Z,4.15
2023-04-30T19:01:39.176Z,3.17
2023-04-30T19:04:30.069Z,2.80
2023-04-30T19:07:19.594Z,2.35
2023-04-30T19:10:08.534Z,2.28
2023-04-30T19:12:55.809Z,1.90
2023-04-30T19:15:46.088Z,1.75
2023-04-30T19:18:32.233Z,2.15
2023-04-30T19:21:20.502Z,2.53
2023-04-30T19:24:06.645Z,2.50
2023-04-30T19:26:53.700Z,2.63
2023-04-30T19:29:40.884Z,2.20
2023-04-30T19:32:30.278Z,2.20
2023-04-30T19:35:16.509Z,2.40
2023-04-30T19:38:03.022Z,2.88
2023-04-30T19:40:52.532Z,2.90
2023-04-30T19:43:39.543Z,2.53
2023-04-30T19:46:25.813Z,2.60
2023-04-30T19:49:11.792Z,2.33
2023-04-30T19:51:59.457Z,2.10
2023-04-30T19:54:48.801Z,2.35
2023-04-30T19:57:41.865Z,2.22
2023-04-30T20:00:29.464Z,2.47
2023-04-30T20:03:20.066Z,2.55
2023-04-30T20:06:10.162Z,2.67
2023-04-30T20:09:04.178Z,2.45
2023-04-30T20:11:52.083Z,2.38
2023-04-30T20:14:40.126Z,2.47
2023-04-30T20:17:26.361Z,2.50
2023-04-30T20:20:14.984Z,2.58
2023-04-30T20:23:15.713Z,2.70
2023-04-30T20:26:02.097Z,2.05
2023-04-30T20:28:48.436Z,2.72
2023-04-30T20:31:35.728Z,2.60
2023-04-30T20:34:22.206Z,2.45
2023-04-30T20:37:11.879Z,2.53
2023-04-30T20:39:58.262Z,2.90
2023-04-30T20:42:44.650Z,2.63
2023-04-30T20:45:35.514Z,2.60
2023-04-30T20:48:21.789Z,2.70
2023-04-30T20:51:16.398Z,2.67
2023-04-30T20:54:03.862Z,2.60
2023-04-30T20:56:49.936Z,2.60
2023-04-30T20:59:40.443Z,3.03
2023-04-30T21:02:28.380Z,2.35
2023-04-30T21:05:14.778Z,2.70
2023-04-30T21:08:01.946Z,2.78
2023-04-30T21:10:48.198Z,3.13
2023-04-30T21:13:34.267Z,3.50
2023-04-30T21:16:20.578Z,3.50
2023-04-30T21:19:09.738Z,4.28
2023-04-30T21:21:55.719Z,3.13
2023-04-30T21:24:42.339Z,3.88
2023-04-30T21:27:28.734Z,3.33
2023-04-30T21:30:17.264Z,3.85
2023-04-30T21:33:04.904Z,3.38
2023-04-30T21:35:50.805Z,4.05
2023-04-30T21:38:38.711Z,4.65
2023-04-30T21:41:30.403Z,4.43
2023-04-30T21:44:16.588Z,3.90
2023-04-30T21:47:03.789Z,3.75
2023-04-30T21:49:50.083Z,3.58
2023-04-30T21:52:41.697Z,3.40
2023-04-30T21:55:33.005Z,3.22
2023-04-30T21:58:19.057Z,2.88
2023-04-30T22:01:05.993Z,2.88
2023-04-30T22:03:55.012Z,3.45
2023-04-30T22:06:41.409Z,2.63
2023-04-30T22:09:30.880Z,2.75
2023-04-30T22:15:12.525Z,3.00
2023-04-30T22:17:58.991Z,2.92
2023-04-30T22:20:45.138Z,3.15
2023-04-30T22:23:31.267Z,3.00
2023-04-30T22:26:17.418Z,2.78
2023-04-30T22:29:09.564Z,2.90
2023-04-30T22:31:55.785Z,2.45
2023-04-30T22:34:42.359Z,2.55
2023-04-30T22:37:31.461Z,2.58
2023-04-30T22:43:05.324Z,2.67
2023-04-30T22:45:51.421Z,2.70
2023-04-30T22:48:37.434Z,2.90
2023-04-30T22:51:27.199Z,2.90
2023-04-30T22:54:13.448Z,2.90
2023-04-30T22:56:59.850Z,2.83
2023-04-30T22:59:48.405Z,2.65
2023-04-30T23:02:34.118Z,3.25
2023-04-30T23:05:20.368Z,2.60
2023-04-30T23:08:06.525Z,2.70
2023-04-30T23:10:54.662Z,3.00
2023-04-30T23:13:43.006Z,2.85
2023-04-30T23:16:32.159Z,3.03
2023-04-30T23:19:18.381Z,2.50
2023-04-30T23:22:04.477Z,2.67
2023-04-30T23:24:50.256Z,2.40
2023-04-30T23:27:36.552Z,2.72
2023-04-30T23:30:23.612Z,2.80
2023-04-30T23:33:10.191Z,2.80
2023-04-30T23:35:56.325Z,2.90
2023-04-30T23:38:47.027Z,2.80
2023-04-30T23:41:32.857Z,2.72
2023-04-30T23:44:18.961Z,2.80
2023-04-30T23:47:05.768Z,2.78
2023-04-30T23:49:55.326Z,2.67
2023-04-30T23:52:42.286Z,3.10
2023-04-30T23:55:28.083Z,2.63
2023-04-30T23:58:14.070Z,3.28
